Krisjanis Valdemars — V7LI9 — position and weather

sailwx.info

Track history (hours):
 
Tides and Currents Weather Stations Pressure Air Temp Water Temp Dewpoint Dewpoint Depression Visibility Wind Speed Wind Dir Waves Ship Positions

Krisjanis Valdemars

Last reported at 2015-May-06 07:15 UTC. Time now 2015-May-06 11:29 UTC.
Position N 57°07' E 008°17'.

Length 183 m; draft 10.8 m.

Type: Tanker. MMSI: 538002757.

Date/timePositionNaut miles runAvg speedWind from/ knotsBaromVisibWave heightAir tempDewpointWater temp
2015-May-06 07:15N 57°07' E 008°17'7811.3
2015-May-06 00:21N 57°48' E 010°20'1012.3
2015-May-05 23:33N 57°49' E 010°38'9 9.3
2015-May-05 22:32N 57°45' E 010°53'1212.3
2015-May-05 21:33N 57°36' E 011°10'1312.8
2015-May-05 20:33N 57°27' E 011°27'1312.9
2015-May-05 19:33N 57°15' E 011°35'1312.5
2015-May-05 18:33N 57°03' E 011°43'1312.8
2015-May-05 17:33N 56°51' E 011°50'1110.7
2015-May-05 16:33N 56°41' E 011°44'12412.4
2015-May-05 06:33N 54°41' E 010°46'1412.0
2015-May-05 05:25N 54°36' E 011°08'1213.8
2015-May-05 04:34N 54°31' E 011°26'1413.6
2015-May-05 03:34N 54°26' E 011°48'1313.3
2015-May-05 02:34N 54°26' E 012°10'1312.9
2015-May-05 01:34N 54°38' E 012°21'1313.3
2015-May-05 00:34N 54°45' E 012°40'1312.9
2015-May-04 23:31N 54°50' E 013°01'1313.3
2015-May-04 22:33N 54°55' E 013°22'1313.2
2015-May-04 21:33N 54°60' E 013°43'1412.7
2015-May-04 20:27N 55°05' E 014°06'1412.8
2015-May-04 19:21N 55°16' E 014°21'1113.2
2015-May-04 18:33N 55°24' E 014°33'1312.8
2015-May-04 17:33N 55°31' E 014°52'1313.2
2015-May-04 16:33N 55°37' E 015°13'14812.0
2015-May-04 04:14N 56°46' E 019°09'21112.7
2015-May-03 11:34N 59°36' E 023°07'1313.0
2015-May-03 10:33N 59°40' E 023°32'1613.1
2015-May-03 09:18N 59°44' E 024°03'1012.9
2015-May-03 08:33N 59°47' E 024°21'5512.8
2015-May-03 04:18N 59°58' E 026°08'1012.8
2015-May-03 03:34N 60°00' E 026°26'1312.4
2015-May-03 02:32N 60°00' E 026°52'8311.8
2015-May-02 19:29N 60°00' E 029°37'1010.2
2015-May-02 18:33N 59°56' E 029°55'8 8.3
2015-May-02 17:33N 59°53' E 030°10'0 0.0
2015-May-02 16:31N 59°53' E 030°10'0 0.0
2015-May-02 15:33N 59°53' E 030°10'0 0.0
2015-May-02 14:33N 59°53' E 030°10'0 0.0
2015-May-02 13:33N 59°53' E 030°10'0 0.0
2015-May-02 12:33N 59°53' E 030°10'0 0.0
2015-May-02 11:30N 59°53' E 030°10'0 0.0
2015-May-02 10:33N 59°53' E 030°10'0 0.0
2015-May-02 09:30N 59°53' E 030°10'0 0.0
2015-May-02 08:33N 59°53' E 030°10'0 0.0
2015-May-02 07:33N 59°53' E 030°10'0 0.0
2015-May-02 06:33N 59°53' E 030°10'0 0.0
2015-May-02 05:33N 59°53' E 030°10'0 0.0
2015-May-02 04:33N 59°53' E 030°10'0 0.0
2015-May-02 03:33N 59°53' E 030°10'0 0.0
2015-May-02 02:33N 59°53' E 030°10'0 0.0
2015-May-02 01:33N 59°53' E 030°10'0 0.0
2015-May-02 00:33N 59°53' E 030°10'0 0.0
2015-May-01 23:33N 59°53' E 030°10'0 0.0
2015-May-01 22:33N 59°53' E 030°10'0 0.0
2015-May-01 21:33N 59°53' E 030°10'0 0.0
2015-May-01 20:33N 59°53' E 030°10'0 0.0
2015-May-01 19:33N 59°53' E 030°10'0 0.0
2015-May-01 18:33N 59°53' E 030°10'0 0.0
2015-May-01 17:33N 59°53' E 030°10'0 0.0
2015-May-01 16:30N 59°53' E 030°10'0 0.0
2015-May-01 15:33N 59°53' E 030°10'0 0.0
2015-May-01 14:27N 59°53' E 030°10'0 0.0
2015-May-01 13:30N 59°53' E 030°10'0 0.0
2015-May-01 12:27N 59°53' E 030°10'0 0.0
2015-May-01 11:33N 59°53' E 030°10'0 0.0
2015-May-01 10:06N 59°53' E 030°10'0 0.0
2015-May-01 09:18N 59°53' E 030°10'0 0.0
2015-May-01 08:30N 59°53' E 030°10'0 0.0
2015-May-01 07:33N 59°53' E 030°10'0 0.0
2015-May-01 06:30N 59°53' E 030°10'0 0.0
2015-May-01 05:18N 59°53' E 030°10'0 0.0
2015-May-01 04:12N 59°53' E 030°10'0 0.0
2015-May-01 03:33N 59°53' E 030°10'6 5.5
2015-May-01 02:33N 59°55' E 029°60'9 8.7
2015-May-01 01:33N 59°59' E 029°44'14 3.4
2015-Apr-30 21:31N 60°06' E 029°21'0 0.0
2015-Apr-30 20:25N 60°06' E 029°21'0 0.0
2015-Apr-30 19:31N 60°06' E 029°21'0 0.0
2015-Apr-29 03:28N 60°06' E 029°20'0 0.0
2015-Apr-29 00:10N 60°06' E 029°21'0 0.1
2015-Apr-28 23:25N 60°06' E 029°21'0 0.1
2015-Apr-28 22:27N 60°06' E 029°21'1 0.7
2015-Apr-28 21:32N 60°05' E 029°20'5012.1
2015-Apr-28 17:26N 60°09' E 027°41'1213.7
2015-Apr-28 16:33N 60°03' E 027°21'1313.1
2015-Apr-28 15:33N 59°58' E 026°56'1413.5
2015-Apr-28 14:34N 59°58' E 026°29'1413.9
2015-Apr-28 13:33N 59°54' E 026°02'4213.9
2015-Apr-28 10:33N 59°45' E 024°41'1313.0
2015-Apr-28 09:33N 59°42' E 024°16'1913.5
2015-Apr-28 08:06N 59°36' E 023°40'1013.5
2015-Apr-28 07:22N 59°33' E 023°21'  
Track history (hours):
 
Tides and Currents Weather Stations Pressure Air Temp Water Temp Dewpoint Dewpoint Depression Visibility Wind Speed Wind Dir Waves Ship Positions

Krisjanis Valdemars

Last reported at 2015-May-06 07:15 UTC. Time now 2015-May-06 11:29 UTC.
Position N 57°07' E 008°17'.

Length 183 m; draft 10.8 m.

Type: Tanker. MMSI: 538002757.

Date/timePositionNaut miles runAvg speedWind from/ knotsBaromVisibWave heightAir tempDewpointWater temp
2015-May-06 07:15N 57°07' E 008°17'7811.3
2015-May-06 00:21N 57°48' E 010°20'1012.3
2015-May-05 23:33N 57°49' E 010°38'9 9.3
2015-May-05 22:32N 57°45' E 010°53'1212.3
2015-May-05 21:33N 57°36' E 011°10'1312.8
2015-May-05 20:33N 57°27' E 011°27'1312.9
2015-May-05 19:33N 57°15' E 011°35'1312.5
2015-May-05 18:33N 57°03' E 011°43'1312.8
2015-May-05 17:33N 56°51' E 011°50'1110.7
2015-May-05 16:33N 56°41' E 011°44'12412.4
2015-May-05 06:33N 54°41' E 010°46'1412.0
2015-May-05 05:25N 54°36' E 011°08'1213.8
2015-May-05 04:34N 54°31' E 011°26'1413.6
2015-May-05 03:34N 54°26' E 011°48'1313.3
2015-May-05 02:34N 54°26' E 012°10'1312.9
2015-May-05 01:34N 54°38' E 012°21'1313.3
2015-May-05 00:34N 54°45' E 012°40'1312.9
2015-May-04 23:31N 54°50' E 013°01'1313.3
2015-May-04 22:33N 54°55' E 013°22'1313.2
2015-May-04 21:33N 54°60' E 013°43'1412.7
2015-May-04 20:27N 55°05' E 014°06'1412.8
2015-May-04 19:21N 55°16' E 014°21'1113.2
2015-May-04 18:33N 55°24' E 014°33'1312.8
2015-May-04 17:33N 55°31' E 014°52'1313.2
2015-May-04 16:33N 55°37' E 015°13'14812.0
2015-May-04 04:14N 56°46' E 019°09'21112.7
2015-May-03 11:34N 59°36' E 023°07'1313.0
2015-May-03 10:33N 59°40' E 023°32'1613.1
2015-May-03 09:18N 59°44' E 024°03'1012.9
2015-May-03 08:33N 59°47' E 024°21'5512.8
2015-May-03 04:18N 59°58' E 026°08'1012.8
2015-May-03 03:34N 60°00' E 026°26'1312.4
2015-May-03 02:32N 60°00' E 026°52'8311.8
2015-May-02 19:29N 60°00' E 029°37'1010.2
2015-May-02 18:33N 59°56' E 029°55'8 8.3
2015-May-02 17:33N 59°53' E 030°10'0 0.0
2015-May-02 16:31N 59°53' E 030°10'0 0.0
2015-May-02 15:33N 59°53' E 030°10'0 0.0
2015-May-02 14:33N 59°53' E 030°10'0 0.0
2015-May-02 13:33N 59°53' E 030°10'0 0.0
2015-May-02 12:33N 59°53' E 030°10'0 0.0
2015-May-02 11:30N 59°53' E 030°10'0 0.0
2015-May-02 10:33N 59°53' E 030°10'0 0.0
2015-May-02 09:30N 59°53' E 030°10'0 0.0
2015-May-02 08:33N 59°53' E 030°10'0 0.0
2015-May-02 07:33N 59°53' E 030°10'0 0.0
2015-May-02 06:33N 59°53' E 030°10'0 0.0
2015-May-02 05:33N 59°53' E 030°10'0 0.0
2015-May-02 04:33N 59°53' E 030°10'0 0.0
2015-May-02 03:33N 59°53' E 030°10'0 0.0
2015-May-02 02:33N 59°53' E 030°10'0 0.0
2015-May-02 01:33N 59°53' E 030°10'0 0.0
2015-May-02 00:33N 59°53' E 030°10'0 0.0
2015-May-01 23:33N 59°53' E 030°10'0 0.0
2015-May-01 22:33N 59°53' E 030°10'0 0.0
2015-May-01 21:33N 59°53' E 030°10'0 0.0
2015-May-01 20:33N 59°53' E 030°10'0 0.0
2015-May-01 19:33N 59°53' E 030°10'0 0.0
2015-May-01 18:33N 59°53' E 030°10'0 0.0
2015-May-01 17:33N 59°53' E 030°10'0 0.0
2015-May-01 16:30N 59°53' E 030°10'0 0.0
2015-May-01 15:33N 59°53' E 030°10'0 0.0
2015-May-01 14:27N 59°53' E 030°10'0 0.0
2015-May-01 13:30N 59°53' E 030°10'0 0.0
2015-May-01 12:27N 59°53' E 030°10'0 0.0
2015-May-01 11:33N 59°53' E 030°10'0 0.0
2015-May-01 10:06N 59°53' E 030°10'0 0.0
2015-May-01 09:18N 59°53' E 030°10'0 0.0
2015-May-01 08:30N 59°53' E 030°10'0 0.0
2015-May-01 07:33N 59°53' E 030°10'0 0.0
2015-May-01 06:30N 59°53' E 030°10'0 0.0
2015-May-01 05:18N 59°53' E 030°10'0 0.0
2015-May-01 04:12N 59°53' E 030°10'0 0.0
2015-May-01 03:33N 59°53' E 030°10'6 5.5
2015-May-01 02:33N 59°55' E 029°60'9 8.7
2015-May-01 01:33N 59°59' E 029°44'14 3.4
2015-Apr-30 21:31N 60°06' E 029°21'0 0.0
2015-Apr-30 20:25N 60°06' E 029°21'0 0.0
2015-Apr-30 19:31N 60°06' E 029°21'0 0.0
2015-Apr-29 03:28N 60°06' E 029°20'0 0.0
2015-Apr-29 00:10N 60°06' E 029°21'0 0.1
2015-Apr-28 23:25N 60°06' E 029°21'0 0.1
2015-Apr-28 22:27N 60°06' E 029°21'1 0.7
2015-Apr-28 21:32N 60°05' E 029°20'5012.1
2015-Apr-28 17:26N 60°09' E 027°41'1213.7
2015-Apr-28 16:33N 60°03' E 027°21'1313.1
2015-Apr-28 15:33N 59°58' E 026°56'1413.5
2015-Apr-28 14:34N 59°58' E 026°29'1413.9
2015-Apr-28 13:33N 59°54' E 026°02'4213.9
2015-Apr-28 10:33N 59°45' E 024°41'1313.0
2015-Apr-28 09:33N 59°42' E 024°16'1913.5
2015-Apr-28 08:06N 59°36' E 023°40'1013.5
2015-Apr-28 07:22N 59°33' E 023°21'  

Dump ship's entire track history